Flight Track Log - Related Links

Times and Time Zones

All times are in EDT time to prevent confusion due to time zone crossing. See the N877PM flight status page for this flight to view local times or setup timezone preferences in your user account.

Time Position Orientation Groundspeed Altitude Reporting Facility
EDT Latitude Longitude Course Direction KTS MPH feet Rate Location/Type
Sat 09:45:29 AM 36.1669 -80.1964 320° Northwest 221 254 8,700  Level Atlanta Center
Sat 09:46:29 AM 36.2086 -80.2533 312° West 221 254 10,300 1,550 Climbing Atlanta Center
Sat 09:47:00 AM 36.0012 -80.4951 244° Southwest  Level Estimated
Sat 09:47:29 AM 36.2478 -80.3133 309° West 221 254 11,800  Level Atlanta Center
Sat 09:48:00 AM 35.9842 -80.5872 255° West  Level Estimated
Sat 09:48:29 AM 36.2872 -80.3733 309° West 226 260 13,500  Level Atlanta Center
Sat 09:49:00 AM 36.0432 -80.6475 320° Northwest  Level FlightAware Approximate
Sat 09:49:29 AM 36.2911 -80.4350 274° West 214 246 15,000  Level Atlanta Center
Sat 09:50:29 AM 36.2744 -80.5053 254° West 197 227 16,300 1,250 Climbing Atlanta Center
Sat 09:51:29 AM 36.2558 -80.5858 254° West 207 238 17,500 1,050 Climbing Atlanta Center
Sat 09:52:29 AM 36.2389 -80.6561 253° West 219 252 18,400 1,000 Climbing Atlanta Center
Sat 09:53:29 AM 36.2222 -80.7264 254° West 219 252 19,500 1,050 Climbing Atlanta Center
Sat 09:54:29 AM 36.2072 -80.7964 255° West 219 252 20,500 1,050 Climbing Atlanta Center
Sat 09:55:29 AM 36.1883 -80.8692 252° West 219 252 21,600 1,100 Climbing Atlanta Center
Sat 09:56:29 AM 36.1714 -80.9369 253° West 219 252 22,700 1,050 Climbing Atlanta Center
Sat 09:57:29 AM 36.1544 -81.0094 254° West 224 258 23,700 950 Climbing Atlanta Center
Sat 09:58:29 AM 36.1392 -81.0742 254° West 224 258 24,600 900 Climbing Atlanta Center
Sat 09:59:29 AM 36.1203 -81.1494 253° West 224 258 25,500 700 Climbing Atlanta Center
Sat 10:00:29 AM 36.1011 -81.2247 253° West 224 258 26,000 250 Climbing Atlanta Center
Sat 10:01:29 AM 36.0822 -81.3153 256° West 247 284 26,000  Level Atlanta Center
Sat 10:02:29 AM 36.0572 -81.4111 252° West 283 326 26,000  Level Atlanta Center
Sat 10:03:29 AM 36.0322 -81.5147 253° West 304 350 26,000  Level Atlanta Center
Sat 10:04:29 AM 36.0072 -81.6156 253° West 309 356 26,000  Level Atlanta Center
Sat 10:05:29 AM 35.9781 -81.7192 251° West 314 361 26,000  Level Atlanta Center
Sat 10:06:29 AM 35.9528 -81.8225 253° West 320 368 26,000  Level Atlanta Center
Sat 10:07:29 AM 35.9253 -81.9283 252° West 327 376 26,000  Level Atlanta Center
Sat 10:08:29 AM 35.8958 -82.0394 252° West 322 371 26,000  Level Atlanta Center
Sat 10:09:29 AM 35.8728 -82.1475 255° West 327 376 26,000  Level Atlanta Center
Sat 10:10:29 AM 35.8408 -82.2456 248° West 318 366 26,000  Level Atlanta Center
Sat 10:11:29 AM 35.8150 -82.3486 253° West 318 366 26,000  Level Atlanta Center
Sat 10:12:29 AM 35.7894 -82.4542 253° West 323 372 26,000  Level Atlanta Center
Sat 10:13:29 AM 35.7614 -82.5569 251° West 323 372 26,000  Level Atlanta Center
Sat 10:14:29 AM 35.7356 -82.6597 253° West 318 366 26,000  Level Atlanta Center
Sat 10:15:29 AM 35.7075 -82.7625 251° West 324 373 26,000  Level Atlanta Center
Sat 10:16:29 AM 35.6814 -82.8678 253° West 324 373 26,000  Level Atlanta Center
Sat 10:17:29 AM 35.6531 -82.9706 251° West 324 373 26,000 -450 Level Atlanta Center
Sat 10:18:29 AM 35.6247 -83.0781 252° West 330 380 25,100 -1,000 Descending Atlanta Center
Sat 10:19:29 AM 35.5922 -83.1908 251° West 335 386 24,000 -1,050 Descending Atlanta Center
Sat 10:20:29 AM 35.5658 -83.3061 254° West 347 399 23,000 -1,050 Descending Atlanta Center
Sat 10:21:29 AM 35.5353 -83.4161 251° West 347 399 21,900 -1,050 Descending Atlanta Center
Sat 10:22:29 AM 35.5044 -83.5286 251° West 347 399 20,900 -950 Descending Atlanta Center
Sat 10:23:29 AM 35.4736 -83.6383 251° West 347 399 20,000 -550 Descending Atlanta Center
Sat 10:24:29 AM 35.4467 -83.7406 252° West 337 388 19,800 -700 Descending Atlanta Center
Sat 10:25:29 AM 35.4178 -83.8475 252° West 327 376 18,600 -900 Descending Atlanta Center
Sat 10:26:29 AM 35.3864 -83.9522 250° West 327 376 18,000 -350 Descending Atlanta Center
Sat 10:27:29 AM 35.3614 -84.0542 253° West 327 376 17,900 -500 Descending Atlanta Center
Sat 10:28:29 AM 35.3303 -84.1558 249° West 322 371 17,000 -1,050 Descending Atlanta Center
Sat 10:29:29 AM 35.3008 -84.2628 251° West 327 376 15,800 -1,200 Descending Atlanta Center
Sat 10:30:29 AM 35.2714 -84.3694 251° West 327 376 14,600 -1,150 Descending Atlanta Center
Sat 10:31:29 AM 35.2439 -84.4786 253° West 332 382 13,500 -1,150 Descending Atlanta Center
Sat 10:32:29 AM 35.2122 -84.5828 250° West 332 382 12,300 -1,250 Descending Atlanta Center
Sat 10:33:29 AM 35.1992 -84.6869 261° West 320 368 11,000 -1,300 Descending Atlanta Center
Sat 10:34:29 AM 35.1881 -84.7858 262° West 309 356 9,700 -1,450 Descending Atlanta Center
Sat 10:35:29 AM 35.1833 -84.8825 267° West 303 349 8,100 -1,650 Descending Atlanta Center
Sat 10:36:29 AM 35.1764 -84.9714 265° West 282 325 6,400 -1,400 Descending Atlanta Center
Sat 10:37:29 AM 35.1739 -85.0450 268° West 267 307 5,300 -800 Descending Atlanta Center
Sat 10:38:29 AM 35.1794 -85.1186 275° West 241 277 4,800 -750 Descending Atlanta Center
Sat 10:39:29 AM 35.1561 -85.1592 235° Southwest 169 194 3,800 -1,000 Descending Atlanta Center
Sat 10:41:00 AM 35.0503 -85.1980 253° West  Level Estimated
Sat 10:48:00 AM 35.0333 -85.2000 253° West  Level FlightAware Approximate
Sat 10:49:00 AM 35.0352 -85.2036 253° West  Level Estimated
Sat 10:50:00 AM 35.0333 -85.2000 253° West  Level FlightAware Approximate

Login

Don't have an account? Register now (free) for customized features, flight alerts, and more!